createdAt,value
2023-04-20T00:02:21.710Z,6.78
2023-04-20T00:04:48.772Z,6.80
2023-04-20T00:07:16.688Z,6.68
2023-04-20T00:09:43.545Z,6.95
2023-04-20T00:12:10.494Z,7.47
2023-04-20T00:14:37.490Z,7.28
2023-04-20T00:17:04.355Z,7.13
2023-04-20T00:19:33.277Z,7.10
2023-04-20T00:22:01.002Z,6.85
2023-04-20T00:24:27.785Z,6.85
2023-04-20T00:26:55.256Z,7.15
2023-04-20T00:29:22.217Z,7.20
2023-04-20T00:31:49.317Z,7.72
2023-04-20T00:34:16.214Z,7.10
2023-04-20T00:36:43.050Z,6.43
2023-04-20T00:39:10.504Z,6.97
2023-04-20T00:41:37.436Z,6.38
2023-04-20T00:44:04.577Z,6.85
2023-04-20T00:46:31.454Z,6.47
2023-04-20T00:48:58.688Z,6.53
2023-04-20T00:51:25.926Z,6.30
2023-04-20T00:53:52.741Z,6.70
2023-04-20T00:56:19.697Z,6.63
2023-04-20T00:58:46.969Z,6.80
2023-04-20T01:01:17.598Z,6.95
2023-04-20T01:03:46.175Z,7.47
2023-04-20T01:06:16.342Z,7.85
2023-04-20T01:08:48.727Z,7.72
2023-04-20T01:11:15.794Z,7.13
2023-04-20T01:13:43.762Z,7.80
2023-04-20T01:16:11.950Z,8.20
2023-04-20T01:18:48.245Z,8.80
2023-04-20T01:21:17.963Z,8.88
2023-04-20T01:23:46.046Z,7.95
2023-04-20T01:26:16.717Z,7.60
2023-04-20T01:28:45.093Z,7.15
2023-04-20T01:31:13.110Z,7.80
2023-04-20T01:33:40.845Z,7.88
2023-04-20T01:36:09.115Z,7.25
2023-04-20T01:38:36.734Z,7.35
2023-04-20T01:41:05.926Z,7.30
2023-04-20T01:43:35.112Z,7.50
2023-04-20T01:46:02.965Z,7.13
2023-04-20T01:48:29.942Z,8.48
2023-04-20T01:50:56.736Z,7.85
2023-04-20T01:53:25.141Z,8.38
2023-04-20T01:55:52.033Z,9.02
2023-04-20T01:58:19.120Z,9.32
2023-04-20T02:00:46.087Z,8.80
2023-04-20T02:03:13.097Z,9.57
2023-04-20T02:05:40.161Z,9.23
2023-04-20T02:08:07.152Z,10.85
2023-04-20T02:10:34.133Z,10.35
2023-04-20T02:13:01.176Z,9.75
2023-04-20T02:15:28.428Z,9.38
2023-04-20T02:17:55.225Z,10.05
2023-04-20T02:20:22.127Z,9.60
2023-04-20T02:22:48.940Z,9.45
2023-04-20T02:25:15.885Z,9.30
2023-04-20T02:27:42.852Z,9.35
2023-04-20T02:30:10.604Z,9.20
2023-04-20T02:32:37.577Z,9.95
2023-04-20T02:35:05.047Z,8.20
2023-04-20T02:37:32.473Z,10.00
2023-04-20T02:39:59.391Z,9.18
2023-04-20T02:42:26.306Z,9.57
2023-04-20T02:44:53.232Z,9.77
2023-04-20T02:47:20.131Z,9.45
2023-04-20T02:49:47.518Z,10.60
2023-04-20T02:52:15.222Z,9.98
2023-04-20T02:54:42.032Z,9.70
2023-04-20T02:57:09.004Z,9.38
2023-04-20T02:59:35.785Z,10.50
2023-04-20T03:02:02.863Z,11.05
2023-04-20T03:04:31.008Z,11.52
2023-04-20T03:06:58.819Z,11.98
2023-04-20T03:09:25.918Z,11.48
2023-04-20T03:11:52.710Z,11.27
2023-04-20T03:14:19.549Z,12.27
2023-04-20T03:16:46.563Z,12.25
2023-04-20T03:19:13.712Z,12.68
2023-04-20T03:21:40.568Z,11.52
2023-04-20T03:24:07.687Z,13.27
2023-04-20T03:26:35.137Z,13.45
2023-04-20T03:29:02.315Z,12.50
2023-04-20T03:31:29.171Z,13.18
2023-04-20T03:33:56.215Z,12.27
2023-04-20T03:36:23.133Z,12.75
2023-04-20T03:38:49.976Z,12.63
2023-04-20T03:41:16.902Z,12.93
2023-04-20T03:43:43.708Z,12.10
2023-04-20T03:46:10.736Z,12.70
2023-04-20T03:48:38.602Z,12.00
2023-04-20T03:51:06.060Z,12.27
2023-04-20T03:53:32.922Z,12.88
2023-04-20T03:55:59.820Z,13.45
2023-04-20T03:58:27.243Z,12.52
2023-04-20T04:01:07.097Z,13.23
2023-04-20T04:03:36.088Z,13.90
2023-04-20T04:06:07.594Z,14.23
2023-04-20T04:08:34.417Z,13.00
2023-04-20T04:11:02.001Z,12.00
2023-04-20T04:13:28.998Z,12.93
2023-04-20T04:15:56.037Z,12.68
2023-04-20T04:18:22.984Z,12.57
2023-04-20T04:20:49.963Z,12.70
2023-04-20T04:23:16.987Z,13.05
2023-04-20T04:25:43.899Z,12.82
2023-04-20T04:28:11.246Z,13.13
2023-04-20T04:30:38.632Z,14.15
2023-04-20T04:33:05.799Z,14.55
2023-04-20T04:35:34.265Z,13.65
2023-04-20T04:38:01.194Z,15.20
2023-04-20T04:40:28.189Z,14.55
2023-04-20T04:42:55.492Z,14.98
2023-04-20T04:45:25.568Z,15.63
2023-04-20T04:47:53.892Z,14.55
2023-04-20T04:50:22.097Z,14.57
2023-04-20T04:52:49.104Z,15.32
2023-04-20T04:55:16.695Z,15.32
2023-04-20T04:57:43.891Z,14.30
2023-04-20T05:00:13.044Z,17.08
2023-04-20T05:02:40.851Z,15.02
2023-04-20T05:05:10.057Z,15.23
2023-04-20T05:07:38.579Z,15.60
2023-04-20T05:10:07.407Z,15.30
2023-04-20T05:12:34.961Z,16.08
2023-04-20T05:15:02.224Z,15.20
2023-04-20T05:17:29.176Z,16.92
2023-04-20T05:19:56.733Z,15.85
2023-04-20T05:22:23.918Z,16.52
2023-04-20T05:24:51.003Z,15.93
2023-04-20T05:27:48.947Z,16.10
2023-04-20T05:30:21.516Z,18.20
2023-04-20T05:35:21.756Z,17.83
2023-04-20T05:37:49.620Z,16.73
2023-04-20T05:40:16.504Z,17.13
2023-04-20T05:42:43.342Z,17.63
2023-04-20T05:45:11.288Z,16.40
2023-04-20T05:47:39.198Z,14.85
2023-04-20T05:50:07.630Z,18.25
2023-04-20T05:52:34.463Z,17.13
2023-04-20T05:55:01.365Z,21.15
2023-04-20T05:57:28.701Z,20.98
2023-04-20T05:59:56.307Z,20.33
2023-04-20T06:02:23.546Z,20.38
2023-04-20T06:04:51.603Z,21.95
2023-04-20T06:07:19.140Z,18.55
2023-04-20T06:09:46.120Z,21.23
2023-04-20T06:12:13.228Z,18.08
2023-04-20T06:14:40.232Z,19.77
2023-04-20T06:17:07.074Z,18.88
2023-04-20T06:19:34.176Z,20.10
2023-04-20T06:22:01.356Z,18.17
2023-04-20T06:24:28.292Z,19.70
2023-04-20T06:26:57.443Z,21.17
2023-04-20T06:29:24.229Z,21.95
2023-04-20T06:31:51.209Z,22.45
2023-04-20T06:34:18.104Z,23.48
2023-04-20T06:36:44.980Z,21.35
2023-04-20T06:39:12.173Z,21.02
2023-04-20T06:41:39.323Z,21.85
2023-04-20T06:44:06.365Z,21.83
2023-04-20T06:46:33.457Z,21.08
2023-04-20T06:49:00.730Z,23.27
2023-04-20T06:51:29.145Z,21.70
2023-04-20T06:53:56.704Z,23.02
2023-04-20T06:56:24.212Z,20.77
2023-04-20T06:58:51.070Z,20.50
2023-04-20T07:01:17.882Z,21.77
2023-04-20T07:03:46.982Z,20.15
2023-04-20T07:06:14.404Z,20.30
2023-04-20T07:08:41.252Z,20.23
2023-04-20T07:11:08.302Z,18.90
2023-04-20T07:13:35.416Z,18.33
2023-04-20T07:16:02.775Z,18.55
2023-04-20T07:18:29.698Z,18.23
2023-04-20T07:20:56.684Z,18.58
2023-04-20T07:23:23.445Z,17.73
2023-04-20T07:25:50.320Z,17.58
2023-04-20T07:28:17.304Z,17.13
2023-04-20T07:30:44.426Z,16.65
2023-04-20T07:33:11.865Z,16.17
2023-04-20T07:35:39.308Z,17.55
2023-04-20T07:38:06.251Z,17.85
2023-04-20T07:40:33.390Z,15.55
2023-04-20T07:43:00.427Z,15.02
2023-04-20T07:45:27.440Z,16.13
2023-04-20T07:47:55.615Z,17.33
2023-04-20T07:50:22.688Z,16.98
2023-04-20T07:52:49.482Z,16.85
2023-04-20T07:55:17.303Z,17.58
2023-04-20T07:57:44.693Z,17.30
2023-04-20T08:00:13.369Z,16.50
2023-04-20T08:02:41.265Z,16.80
2023-04-20T08:05:10.227Z,17.77
2023-04-20T08:07:38.060Z,17.17
2023-04-20T08:10:07.413Z,16.98
2023-04-20T08:12:34.259Z,16.80
2023-04-20T08:15:04.280Z,16.35
2023-04-20T08:17:31.217Z,17.60
2023-04-20T08:19:58.236Z,16.20
2023-04-20T08:22:32.207Z,15.05
2023-04-20T08:24:59.411Z,15.73
2023-04-20T08:27:28.610Z,16.48
2023-04-20T08:29:55.759Z,16.75
2023-04-20T08:32:25.166Z,16.17
2023-04-20T08:34:53.311Z,15.00
2023-04-20T08:37:20.338Z,15.50
2023-04-20T08:39:47.554Z,15.63
2023-04-20T08:42:16.073Z,14.40
2023-04-20T08:44:43.405Z,15.25
2023-04-20T08:47:11.908Z,14.75
2023-04-20T08:49:41.881Z,14.48
2023-04-20T08:52:10.982Z,14.38
2023-04-20T08:54:42.961Z,13.43
2023-04-20T08:57:13.305Z,14.25
2023-04-20T08:59:40.132Z,14.32
2023-04-20T09:02:12.616Z,13.57
2023-04-20T09:04:41.589Z,11.00
2023-04-20T09:07:21.167Z,13.32
2023-04-20T09:09:58.144Z,14.60
2023-04-20T09:12:25.485Z,13.70
2023-04-20T09:14:53.771Z,13.88
2023-04-20T09:17:39.579Z,16.02
2023-04-20T09:20:08.519Z,14.18
2023-04-20T09:22:37.377Z,14.80
2023-04-20T09:25:18.305Z,15.35
2023-04-20T09:27:57.169Z,15.65
2023-04-20T09:30:24.158Z,16.45
2023-04-20T09:33:04.687Z,15.43
2023-04-20T09:35:31.928Z,15.98
2023-04-20T09:37:58.904Z,16.88
2023-04-20T09:40:27.153Z,15.38
2023-04-20T09:42:55.032Z,16.85
2023-04-20T09:45:22.713Z,16.35
2023-04-20T09:47:51.034Z,15.68
2023-04-20T09:50:26.904Z,14.85
2023-04-20T09:53:00.779Z,16.13
2023-04-20T09:55:30.970Z,15.35
2023-04-20T09:57:59.132Z,15.73
2023-04-20T10:00:26.300Z,14.75
2023-04-20T10:02:53.452Z,15.60
2023-04-20T10:05:20.760Z,14.10
2023-04-20T10:07:47.550Z,13.65
2023-04-20T10:10:16.343Z,14.50
2023-04-20T10:12:55.373Z,12.70
2023-04-20T10:15:24.069Z,12.27
2023-04-20T10:17:51.386Z,11.88
2023-04-20T10:20:26.730Z,11.00
2023-04-20T10:23:06.040Z,11.00
2023-04-20T10:25:32.910Z,11.75
2023-04-20T10:28:04.591Z,11.55
2023-04-20T10:30:33.590Z,10.23
2023-04-20T10:33:11.627Z,11.35
2023-04-20T10:35:58.928Z,11.25
2023-04-20T10:38:33.675Z,12.52
2023-04-20T10:41:11.881Z,12.02
2023-04-20T10:43:42.246Z,12.15
2023-04-20T10:46:19.808Z,11.82
2023-04-20T10:48:58.851Z,12.23
2023-04-20T10:51:26.083Z,12.38
2023-04-20T10:54:08.344Z,11.68
2023-04-20T10:56:54.517Z,11.70
2023-04-20T10:59:23.517Z,13.07
2023-04-20T11:01:51.825Z,13.38
2023-04-20T11:04:19.318Z,12.40
2023-04-20T11:06:48.418Z,13.40
2023-04-20T11:09:26.369Z,12.10
2023-04-20T11:12:05.620Z,12.55
2023-04-20T11:14:37.428Z,12.13
2023-04-20T11:17:05.345Z,12.45
2023-04-20T11:19:36.952Z,12.73
2023-04-20T11:22:06.410Z,13.07
2023-04-20T11:24:34.915Z,13.18
2023-04-20T11:27:02.917Z,13.23
2023-04-20T11:29:39.845Z,16.98
2023-04-20T11:32:11.795Z,12.82
2023-04-20T11:34:39.874Z,12.90
2023-04-20T11:37:13.043Z,13.90
2023-04-20T11:42:06.949Z,12.57
2023-04-20T11:44:36.444Z,13.55
2023-04-20T11:47:03.781Z,13.98
2023-04-20T11:49:30.802Z,14.57
2023-04-20T11:51:57.715Z,12.80
2023-04-20T11:54:25.338Z,13.15
2023-04-20T11:56:52.197Z,12.88
2023-04-20T11:59:20.343Z,12.82
2023-04-20T12:01:47.663Z,14.35
2023-04-20T12:04:15.351Z,13.48
2023-04-20T12:06:42.738Z,13.23
2023-04-20T12:09:09.536Z,14.18
2023-04-20T12:11:36.322Z,14.57
2023-04-20T12:14:04.478Z,14.02
2023-04-20T12:16:31.733Z,15.27
2023-04-20T12:18:58.613Z,13.65
2023-04-20T12:21:25.616Z,14.48
2023-04-20T12:23:52.889Z,13.73
2023-04-20T12:26:22.562Z,14.05
2023-04-20T12:28:50.670Z,14.27
2023-04-20T12:31:17.532Z,15.55
2023-04-20T12:33:44.527Z,15.27
2023-04-20T12:36:11.417Z,15.63
2023-04-20T12:38:38.356Z,15.18
2023-04-20T12:41:05.413Z,15.75
2023-04-20T12:43:32.186Z,16.70
2023-04-20T12:45:59.095Z,16.75
2023-04-20T12:48:26.010Z,15.90
2023-04-20T12:50:52.779Z,17.27
2023-04-20T12:53:19.964Z,17.13
2023-04-20T12:55:47.421Z,16.20
2023-04-20T12:58:16.059Z,18.38
2023-04-20T13:00:43.369Z,17.45
2023-04-20T13:03:10.701Z,18.58
2023-04-20T13:05:37.637Z,17.70
2023-04-20T13:08:04.581Z,18.30
2023-04-20T13:10:31.438Z,17.58
2023-04-20T13:12:59.618Z,17.02
2023-04-20T13:15:38.212Z,18.85
2023-04-20T13:18:06.791Z,18.80
2023-04-20T13:20:33.910Z,22.33
2023-04-20T13:23:02.301Z,21.17
2023-04-20T13:25:32.741Z,19.63
2023-04-20T13:28:02.392Z,32.40
2023-04-20T13:30:29.548Z,22.55
2023-04-20T13:32:56.461Z,18.08
2023-04-20T13:35:24.219Z,19.67
2023-04-20T13:37:51.145Z,19.38
2023-04-20T13:40:18.006Z,19.67
2023-04-20T13:42:44.912Z,18.05
2023-04-20T13:45:12.311Z,19.80
2023-04-20T13:47:40.148Z,18.33
2023-04-20T13:50:08.409Z,20.55
2023-04-20T13:52:35.612Z,19.77
2023-04-20T13:55:02.489Z,18.77
2023-04-20T13:57:31.576Z,20.02
2023-04-20T14:00:01.624Z,20.50
2023-04-20T14:02:29.652Z,19.33
2023-04-20T14:04:56.733Z,18.30
2023-04-20T14:07:23.580Z,18.75
2023-04-20T14:09:50.989Z,19.95
2023-04-20T14:12:18.165Z,18.00
2023-04-20T14:14:44.982Z,19.17
2023-04-20T14:17:11.825Z,18.80
2023-04-20T14:19:38.657Z,18.00
2023-04-20T14:22:05.508Z,17.17
2023-04-20T14:24:32.372Z,17.63
2023-04-20T14:26:59.865Z,18.67
2023-04-20T14:29:26.626Z,18.45
2023-04-20T14:31:53.550Z,17.95
2023-04-20T14:34:20.537Z,17.38
2023-04-20T14:36:48.501Z,17.98
2023-04-20T14:39:15.791Z,18.77
2023-04-20T14:41:42.572Z,18.23
2023-04-20T14:44:09.418Z,18.67
2023-04-20T14:46:36.274Z,17.02
2023-04-20T14:49:03.581Z,18.63
2023-04-20T14:51:30.861Z,17.48
2023-04-20T14:53:57.839Z,19.83
2023-04-20T14:56:24.748Z,26.67
2023-04-20T14:58:52.296Z,20.05
2023-04-20T15:01:19.106Z,17.30
2023-04-20T15:03:46.139Z,17.52
2023-04-20T15:06:13.265Z,17.45
2023-04-20T15:08:40.168Z,18.65
2023-04-20T15:11:06.978Z,17.73
2023-04-20T15:13:33.910Z,16.95
2023-04-20T15:16:00.943Z,17.40
2023-04-20T15:18:27.793Z,17.83
2023-04-20T15:20:54.686Z,16.65
2023-04-20T15:23:21.558Z,21.55
2023-04-20T15:25:48.457Z,17.58
2023-04-20T15:28:15.445Z,17.98
2023-04-20T15:30:42.478Z,19.42
2023-04-20T15:33:09.445Z,18.58
2023-04-20T15:35:36.244Z,19.75
2023-04-20T15:38:03.679Z,16.98
2023-04-20T15:40:30.600Z,16.77
2023-04-20T15:42:57.478Z,17.48
2023-04-20T15:45:24.608Z,16.67
2023-04-20T15:47:51.735Z,17.00
2023-04-20T15:50:18.998Z,16.45
2023-04-20T15:52:49.482Z,16.85
2023-04-20T15:55:17.068Z,17.00
2023-04-20T15:57:44.662Z,16.95
2023-04-20T16:00:13.644Z,16.05
2023-04-20T16:02:40.889Z,17.88
2023-04-20T16:05:09.001Z,16.98
2023-04-20T16:07:35.859Z,18.08
2023-04-20T16:10:02.969Z,16.42
2023-04-20T16:12:29.845Z,16.52
2023-04-20T16:14:57.255Z,16.95
2023-04-20T16:17:24.346Z,16.48
2023-04-20T16:19:51.228Z,16.23
2023-04-20T16:22:18.139Z,16.40
2023-04-20T16:24:45.199Z,17.80
2023-04-20T16:27:12.023Z,18.42
2023-04-20T16:29:38.902Z,18.45
2023-04-20T16:32:06.649Z,17.10
2023-04-20T16:34:33.606Z,17.23
2023-04-20T16:37:00.693Z,16.83
2023-04-20T16:39:27.496Z,19.80
2023-04-20T16:41:54.605Z,20.25
2023-04-20T16:44:21.566Z,18.75
2023-04-20T16:46:51.103Z,17.75
2023-04-20T16:49:18.261Z,18.80
2023-04-20T16:51:45.240Z,19.88
2023-04-20T16:54:12.924Z,19.20
2023-04-20T16:56:40.639Z,18.70
2023-04-20T16:59:07.976Z,18.40
2023-04-20T17:01:34.908Z,17.48
2023-04-20T17:04:02.301Z,18.75
2023-04-20T17:06:29.514Z,18.90
2023-04-20T17:09:01.215Z,19.58
2023-04-20T17:11:28.054Z,25.55
2023-04-20T17:13:54.848Z,19.10
2023-04-20T17:16:21.718Z,18.63
2023-04-20T17:18:48.557Z,18.58
2023-04-20T17:21:15.300Z,18.60
2023-04-20T17:23:42.224Z,19.20
2023-04-20T17:26:09.344Z,19.17
2023-04-20T17:28:36.108Z,17.73
2023-04-20T17:31:02.940Z,19.05
2023-04-20T17:33:29.917Z,19.88
2023-04-20T17:35:57.528Z,20.13
2023-04-20T17:38:24.609Z,18.38
2023-04-20T17:40:51.660Z,19.67
2023-04-20T17:43:18.964Z,20.23
2023-04-20T17:45:49.093Z,19.67
2023-04-20T17:48:16.348Z,26.08
2023-04-20T17:50:43.158Z,25.60
2023-04-20T17:53:10.031Z,35.38
2023-04-20T17:55:37.163Z,22.80
2023-04-20T17:58:04.143Z,21.23
2023-04-20T18:00:30.948Z,22.25
2023-04-20T18:02:58.864Z,22.10
2023-04-20T18:05:26.716Z,22.05
2023-04-20T18:07:53.469Z,22.08
2023-04-20T18:10:20.476Z,21.85
2023-04-20T18:12:47.385Z,23.15
2023-04-20T18:15:14.284Z,23.35
2023-04-20T18:17:42.221Z,22.63
2023-04-20T18:20:09.694Z,22.02
2023-04-20T18:22:37.248Z,22.10
2023-04-20T18:25:05.490Z,21.23
2023-04-20T18:27:32.435Z,21.83
2023-04-20T18:30:01.828Z,23.13
2023-04-20T18:32:30.802Z,22.92
2023-04-20T18:34:59.121Z,21.90
2023-04-20T18:37:25.943Z,23.45
2023-04-20T18:39:54.964Z,22.33
2023-04-20T18:42:22.036Z,23.10
2023-04-20T18:44:53.444Z,23.05
2023-04-20T18:47:22.162Z,22.80
2023-04-20T18:49:49.027Z,22.08
2023-04-20T18:52:15.859Z,22.70
2023-04-20T18:54:42.720Z,23.10
2023-04-20T18:57:09.572Z,22.42
2023-04-20T18:59:36.450Z,23.15
2023-04-20T19:02:03.586Z,23.20
2023-04-20T19:04:33.117Z,21.83
2023-04-20T19:07:00.136Z,23.40
2023-04-20T19:09:26.955Z,24.08
2023-04-20T19:11:53.767Z,23.08
2023-04-20T19:14:20.884Z,23.40
2023-04-20T19:16:47.842Z,23.88
2023-04-20T19:19:14.626Z,23.85
2023-04-20T19:21:41.520Z,23.42
2023-04-20T19:24:08.413Z,24.45
2023-04-20T19:26:35.479Z,24.17
2023-04-20T19:29:02.316Z,23.13
2023-04-20T19:31:36.657Z,23.48
2023-04-20T19:34:07.204Z,23.35
2023-04-20T19:36:34.472Z,23.52
2023-04-20T19:39:01.307Z,23.15
2023-04-20T19:41:28.225Z,21.92
2023-04-20T19:43:55.564Z,22.27
2023-04-20T19:46:22.717Z,20.55
2023-04-20T19:48:49.590Z,22.70
2023-04-20T19:51:16.400Z,22.65
2023-04-20T19:53:43.282Z,23.90
2023-04-20T19:56:10.217Z,22.58
2023-04-20T19:58:37.300Z,22.75
2023-04-20T20:01:05.042Z,21.58
2023-04-20T20:03:31.992Z,22.05
2023-04-20T20:06:00.678Z,20.98
2023-04-20T20:08:27.653Z,21.90
2023-04-20T20:10:54.465Z,20.63
2023-04-20T20:13:21.273Z,20.67
2023-04-20T20:15:48.259Z,21.58
2023-04-20T20:18:15.177Z,21.60
2023-04-20T20:20:41.953Z,20.88
2023-04-20T20:23:08.901Z,20.70
2023-04-20T20:25:35.797Z,20.30
2023-04-20T20:28:02.744Z,20.63
2023-04-20T20:30:29.598Z,25.42
2023-04-20T20:32:58.752Z,27.80
2023-04-20T20:35:31.559Z,21.63
2023-04-20T20:37:59.535Z,21.73
2023-04-20T20:40:26.505Z,19.58
2023-04-20T20:42:54.816Z,20.30
2023-04-20T20:45:21.950Z,18.08
2023-04-20T20:47:49.364Z,18.35
2023-04-20T20:50:17.647Z,18.38
2023-04-20T20:52:44.427Z,19.45
2023-04-20T20:55:11.501Z,17.75
2023-04-20T20:57:38.492Z,17.55
2023-04-20T21:00:08.336Z,19.52
2023-04-20T21:02:35.823Z,17.48
2023-04-20T21:05:04.085Z,17.98
2023-04-20T21:07:31.032Z,18.02
2023-04-20T21:09:58.110Z,18.65
2023-04-20T21:12:25.240Z,16.60
2023-04-20T21:14:52.211Z,17.67
2023-04-20T21:17:19.686Z,19.08
2023-04-20T21:19:46.476Z,18.15
2023-04-20T21:22:13.348Z,17.52
2023-04-20T21:24:40.626Z,17.50
2023-04-20T21:27:07.568Z,18.42
2023-04-20T21:29:34.369Z,17.48
2023-04-20T21:32:01.278Z,17.73
2023-04-20T21:34:28.234Z,17.00
2023-04-20T21:36:55.011Z,18.35
2023-04-20T21:39:21.811Z,17.13
2023-04-20T21:41:48.607Z,17.55
2023-04-20T21:44:15.534Z,17.45
2023-04-20T21:46:42.382Z,18.20
2023-04-20T21:49:10.095Z,17.30
2023-04-20T21:51:36.937Z,17.08
2023-04-20T21:54:03.883Z,18.88
2023-04-20T21:56:30.745Z,19.48
2023-04-20T21:58:57.546Z,17.95
2023-04-20T22:01:24.413Z,18.23
2023-04-20T22:03:51.892Z,19.70
2023-04-20T22:06:18.798Z,18.42
2023-04-20T22:08:45.909Z,18.48
2023-04-20T22:11:12.701Z,18.27
2023-04-20T22:13:39.678Z,18.20
2023-04-20T22:16:06.892Z,17.98
2023-04-20T22:18:33.964Z,18.05
2023-04-20T22:21:03.876Z,17.85
2023-04-20T22:23:30.933Z,18.83
2023-04-20T22:25:57.787Z,18.48
2023-04-20T22:28:26.621Z,18.15
2023-04-20T22:30:53.766Z,18.35
2023-04-20T22:33:20.543Z,17.17
2023-04-20T22:35:47.385Z,18.00
2023-04-20T22:38:14.168Z,18.95
2023-04-20T22:40:41.021Z,19.35
2023-04-20T22:43:07.897Z,16.92
2023-04-20T22:45:34.734Z,18.10
2023-04-20T22:48:01.667Z,18.77
2023-04-20T22:50:29.200Z,19.50
2023-04-20T22:52:56.076Z,19.85
2023-04-20T22:55:23.140Z,18.88
2023-04-20T22:57:50.014Z,20.33
2023-04-20T23:00:17.263Z,20.00
2023-04-20T23:02:44.258Z,19.98
2023-04-20T23:05:11.505Z,18.75
2023-04-20T23:07:39.379Z,18.30
2023-04-20T23:10:07.370Z,18.80
2023-04-20T23:12:34.238Z,18.70
2023-04-20T23:15:01.354Z,19.20
2023-04-20T23:17:28.727Z,19.58
2023-04-20T23:19:56.386Z,16.50
2023-04-20T23:22:23.361Z,18.42
2023-04-20T23:24:50.527Z,18.73
2023-04-20T23:27:17.437Z,17.80
2023-04-20T23:29:44.544Z,19.50
2023-04-20T23:32:11.346Z,20.30
2023-04-20T23:34:38.359Z,18.77
2023-04-20T23:37:05.184Z,19.98
2023-04-20T23:39:37.350Z,19.00
2023-04-20T23:42:05.587Z,20.40
2023-04-20T23:44:32.449Z,20.77
2023-04-20T23:46:59.401Z,20.05
2023-04-20T23:49:26.201Z,19.33
2023-04-20T23:51:53.041Z,20.40
2023-04-20T23:54:19.841Z,19.48
2023-04-20T23:56:46.633Z,19.23
2023-04-20T23:59:13.452Z,18.40
